Time;durP1;ratioP1;P1;durP2;ratioP2;P2;SDS_P1;SDS_P2;PMS_P1;PMS_P2;Temp;Humidity;BMP_temperature;BMP_pressure;BME280_temperature;BME280_humidity;BME280_pressure;Samples;Min_cycle;Max_cycle;Signal;HPM_P1;HPM_P2
2023/09/21 00:02:49;;;;;;;1.25;0.98;;;;;;;15.62;100.00;100283.28;10561560;28;20060;-92
2023/09/21 00:07:52;;;;;;;1.13;1.00;;;;;;;15.69;100.00;100291.91;10561247;28;20032;-90
2023/09/21 00:12:55;;;;;;;0.90;0.90;;;;;;;15.71;100.00;100289.63;10564751;28;20118;-90
2023/09/21 00:17:58;;;;;;;2.05;1.10;;;;;;;15.70;100.00;100298.25;10560669;28;20047;-90
2023/09/21 00:23:08;;;;;;;1.20;1.00;;;;;;;15.66;100.00;100298.09;10557232;28;20138;-90
2023/09/21 00:28:12;;;;;;;2.35;1.05;;;;;;;15.73;100.00;100303.94;10561430;28;20126;-89
2023/09/21 00:33:15;;;;;;;0.93;0.90;;;;;;;15.73;100.00;100295.63;10560509;28;20055;-91
2023/09/21 00:38:19;;;;;;;1.35;1.00;;;;;;;15.68;100.00;100304.09;10529670;28;20028;-89
2023/09/21 00:43:27;;;;;;;0.90;0.90;;;;;;;15.65;100.00;100307.53;10559151;28;20027;-88
2023/09/21 00:48:42;;;;;;;;;;;;;;;15.73;100.00;100315.00;10546352;28;20123;-91
2023/09/21 00:53:45;;;;;;;1.48;1.08;;;;;;;15.84;100.00;100315.53;10538378;28;19919;-91
2023/09/21 00:58:53;;;;;;;1.60;1.50;;;;;;;15.71;100.00;100320.06;10518152;28;20038;-90
2023/09/21 01:03:58;;;;;;;1.83;1.40;;;;;;;15.69;100.00;100322.31;10590187;27;20039;-89
2023/09/21 01:09:03;;;;;;;1.60;1.45;;;;;;;15.59;100.00;100323.44;10586906;27;20038;-90
2023/09/21 01:14:09;;;;;;;1.63;1.52;;;;;;;15.73;100.00;100315.00;10589353;27;20047;-89
2023/09/21 01:19:14;;;;;;;1.80;1.70;;;;;;;15.60;100.00;100327.81;10619817;27;20486;-90
2023/09/21 01:24:17;;;;;;;2.22;1.83;;;;;;;15.65;100.00;100321.34;10593964;27;20035;-90
2023/09/21 01:29:22;;;;;;;2.33;1.80;;;;;;;15.66;100.00;100332.09;10608331;27;20122;-91
2023/09/21 01:34:25;;;;;;;2.40;1.92;;;;;;;15.65;100.00;100326.88;10609613;27;20039;-90
2023/09/21 01:39:29;;;;;;;2.30;1.80;;;;;;;15.60;100.00;100341.66;10602980;27;20043;-90
2023/09/21 01:44:31;;;;;;;3.53;2.05;;;;;;;15.63;100.00;100338.28;10591299;27;20047;-89
2023/09/21 01:49:34;;;;;;;2.15;1.95;;;;;;;15.66;100.00;100353.41;10564693;27;20027;-91
2023/09/21 01:54:36;;;;;;;3.10;2.38;;;;;;;15.76;100.00;100358.63;10570562;27;20133;-90
2023/09/21 01:59:41;;;;;;;3.85;2.78;;;;;;;15.74;100.00;100352.59;10654238;27;20115;-89
2023/09/21 02:04:43;;;;;;;3.08;2.42;;;;;;;15.68;100.00;100362.19;10587874;27;20505;-89
2023/09/21 02:09:46;;;;;;;4.32;3.35;;;;;;;15.65;100.00;100362.84;10590913;27;20043;-91
2023/09/21 02:14:49;;;;;;;4.32;3.15;;;;;;;15.63;100.00;100371.47;10606462;27;20058;-90
2023/09/21 02:19:51;;;;;;;4.47;3.17;;;;;;;15.66;100.00;100381.06;10597555;27;20058;-88
2023/09/21 02:24:55;;;;;;;5.50;3.72;;;;;;;15.63;100.00;100377.00;10635258;27;20498;-89
2023/09/21 02:29:59;;;;;;;4.97;3.80;;;;;;;15.70;100.00;100378.47;10586279;27;20516;-90
2023/09/21 02:35:03;;;;;;;5.15;3.97;;;;;;;15.71;100.00;100389.22;10614574;27;20047;-91
2023/09/21 02:40:10;;;;;;;5.57;3.78;;;;;;;15.66;100.00;100397.66;10587002;27;20576;-92
2023/09/21 02:45:13;;;;;;;5.43;4.10;;;;;;;15.63;100.00;100401.06;10603497;27;20417;-90
2023/09/21 02:50:20;;;;;;;6.28;4.28;;;;;;;15.66;100.00;100400.44;10569443;27;20060;-90
2023/09/21 02:55:30;;;;;;;5.10;3.60;;;;;;;15.66;100.00;100404.00;10591650;27;20057;-90
2023/09/21 03:00:40;;;;;;;5.25;3.10;;;;;;;15.69;100.00;100405.31;10599708;27;20443;-90
2023/09/21 03:05:46;;;;;;;6.70;4.18;;;;;;;15.65;100.00;100412.63;10607626;27;20044;-90
2023/09/21 03:10:50;;;;;;;;;;;;;;;15.70;100.00;100426.31;10585285;27;20035;-89
2023/09/21 03:15:58;;;;;;;4.35;3.25;;;;;;;15.60;100.00;100418.28;10614304;27;19919;-89
2023/09/21 03:21:09;;;;;;;3.97;2.90;;;;;;;15.74;100.00;100413.47;10580985;27;20398;-90
2023/09/21 03:26:18;;;;;;;4.20;2.92;;;;;;;15.76;100.00;100432.50;10638270;27;20035;-90
2023/09/21 03:31:21;;;;;;;3.92;2.70;;;;;;;15.82;100.00;100434.81;10620453;27;20598;-91
2023/09/21 03:36:24;;;;;;;4.70;2.60;;;;;;;15.78;100.00;100439.34;10634584;27;20494;-90
2023/09/21 03:41:27;;;;;;;3.78;2.42;;;;;;;15.81;100.00;100440.69;10592132;28;20039;-90
2023/09/21 03:46:29;;;;;;;3.92;2.45;;;;;;;15.73;100.00;100442.25;10600473;28;20049;-91
2023/09/21 03:51:38;;;;;;;4.30;2.10;;;;;;;15.73;100.00;100452.50;10595609;27;20043;-90
2023/09/21 03:56:41;;;;;;;2.75;2.20;;;;;;;15.76;100.00;100449.91;10592104;27;20138;-91
2023/09/21 04:01:46;;;;;;;4.18;2.33;;;;;;;15.85;100.00;100456.31;10603124;27;20053;-90
2023/09/21 04:07:07;;;;;;;4.03;3.50;;;;;;;15.88;99.33;100461.19;10615174;27;20596;-92
2023/09/21 04:12:35;;;;;;;3.20;2.00;;;;;;;16.02;98.41;100463.03;10618485;28;20539;-90
2023/09/21 04:17:40;;;;;;;2.92;1.92;;;;;;;15.94;98.68;100472.91;10606734;27;21587;-92
2023/09/21 04:23:13;;;;;;;3.85;2.92;;;;;;;16.07;98.63;100473.94;10632136;28;20122;-91
2023/09/21 04:28:22;;;;;;;3.33;1.80;;;;;;;15.91;98.15;100481.88;10607388;27;20050;-86
2023/09/21 04:33:25;;;;;;;1.73;1.60;;;;;;;15.87;98.39;100484.47;10614422;27;20523;-90
2023/09/21 04:38:27;;;;;;;2.88;1.70;;;;;;;15.78;99.12;100500.22;10589088;28;20039;-91
2023/09/21 04:43:32;;;;;;;2.33;1.58;;;;;;;15.81;99.18;100510.66;10583315;28;20501;-92
2023/09/21 04:48:41;;;;;;;4.18;1.80;;;;;;;15.92;98.64;100503.69;10593157;27;20041;-90
2023/09/21 04:54:10;;;;;;;2.30;1.60;;;;;;;15.98;98.32;100505.19;10632075;27;20047;-90
2023/09/21 04:59:14;;;;;;;2.58;1.63;;;;;;;16.05;97.41;100507.47;10605134;27;20031;-90
2023/09/21 05:04:17;;;;;;;4.68;1.80;;;;;;;16.01;97.43;100509.25;10585371;28;20047;-89
2023/09/21 05:09:19;;;;;;;6.75;2.90;;;;;;;16.01;97.35;100522.28;10590065;27;20051;-89
2023/09/21 05:14:22;;;;;;;5.13;2.33;;;;;;;16.07;96.46;100537.59;10587281;28;20044;-90
2023/09/21 05:19:25;;;;;;;2.80;1.98;;;;;;;15.90;97.12;100536.41;10586645;28;20528;-89
2023/09/21 05:24:28;;;;;;;2.47;2.08;;;;;;;15.83;97.43;100552.66;10589530;27;20035;-90
2023/09/21 05:29:30;;;;;;;4.60;2.60;;;;;;;15.84;97.87;100546.00;10601766;28;20039;-89
2023/09/21 05:34:33;;;;;;;7.45;2.85;;;;;;;15.85;97.98;100553.16;10580528;28;20398;-92
2023/09/21 05:39:35;;;;;;;4.88;2.03;;;;;;;15.92;97.58;100564.56;10584512;28;20040;-93
2023/09/21 05:44:38;;;;;;;3.17;2.13;;;;;;;15.87;97.08;100569.44;10566620;27;20039;-92
2023/09/21 05:49:43;;;;;;;6.50;2.88;;;;;;;16.06;97.37;100580.25;10625491;27;20039;-91
2023/09/21 05:55:16;;;;;;;6.22;2.88;;;;;;;16.17;96.11;100590.75;10609276;27;20047;-92
2023/09/21 06:00:26;;;;;;;3.63;2.08;;;;;;;16.11;96.34;100597.53;10590138;27;20050;-89
2023/09/21 06:05:29;;;;;;;4.65;3.15;;;;;;;15.92;96.62;100611.63;10618454;27;20053;-92
2023/09/21 06:10:32;;;;;;;9.35;3.08;;;;;;;16.06;96.35;100605.19;10598418;27;20039;-91
2023/09/21 06:15:58;;;;;;;5.53;3.17;;;;;;;15.95;96.35;100610.16;10616880;27;20036;-92
2023/09/21 06:21:02;;;;;;;7.82;3.10;;;;;;;16.14;95.78;100616.31;10630926;27;20035;-91
2023/09/21 06:26:04;;;;;;;9.05;3.45;;;;;;;16.27;94.93;100611.78;10586693;27;20042;-91
2023/09/21 06:31:15;;;;;;;3.92;2.88;;;;;;;16.42;93.93;100622.41;10607213;27;20035;-91
2023/09/21 06:36:41;;;;;;;4.78;3.05;;;;;;;16.74;92.74;100626.78;10591483;27;20043;-91
2023/09/21 06:41:47;;;;;;;5.30;2.72;;;;;;;16.85;90.97;100624.53;10622767;27;20055;-92
2023/09/21 06:46:51;;;;;;;6.25;3.25;;;;;;;17.10;89.36;100636.78;10579372;28;20050;-91
2023/09/21 06:51:56;;;;;;;3.97;2.78;;;;;;;17.27;88.77;100641.53;10592290;27;20047;-90
2023/09/21 06:57:03;;;;;;;6.90;2.97;;;;;;;17.44;87.91;100638.75;10580493;27;20088;-92
2023/09/21 07:02:15;;;;;;;5.28;2.88;;;;;;;17.29;87.80;100648.38;10612093;27;20110;-91
2023/09/21 07:07:21;;;;;;;7.00;3.28;;;;;;;17.25;87.92;100647.41;10623281;27;20046;-89
2023/09/21 07:12:23;;;;;;;4.07;2.60;;;;;;;17.41;87.43;100656.03;10611587;27;20036;-89
2023/09/21 07:17:25;;;;;;;4.03;2.80;;;;;;;17.44;86.89;100660.94;10635434;27;20035;-90
2023/09/21 07:22:27;;;;;;;5.65;3.08;;;;;;;17.34;87.32;100662.06;10593995;27;20038;-91
2023/09/21 07:27:30;;;;;;;5.03;2.53;;;;;;;17.10;87.41;100672.81;10580346;27;20035;-92
2023/09/21 07:32:32;;;;;;;4.45;2.85;;;;;;;17.20;87.05;100674.47;10604400;27;20391;-91
2023/09/21 07:37:35;;;;;;;5.13;3.20;;;;;;;17.05;86.60;100679.34;10599060;28;20505;-91
2023/09/21 07:42:37;;;;;;;5.25;3.15;;;;;;;17.18;87.34;100691.41;10576802;27;20039;-89
2023/09/21 07:47:39;;;;;;;7.10;3.35;;;;;;;17.23;86.05;100696.00;10619665;27;20042;-88
2023/09/21 07:52:41;;;;;;;4.68;3.30;;;;;;;17.31;86.33;100703.50;10635936;27;20043;-86
2023/09/21 07:57:47;;;;;;;6.50;3.70;;;;;;;17.12;86.04;100718.50;10653501;27;20038;-87
2023/09/21 08:02:49;;;;;;;4.32;3.15;;;;;;;17.06;86.31;100717.03;10532328;28;20056;-88
2023/09/21 08:07:52;;;;;;;5.22;3.17;;;;;;;17.15;86.17;100726.16;10562810;28;20043;-86
2023/09/21 08:12:54;;;;;;;3.33;2.90;;;;;;;17.39;83.93;100725.72;10513304;28;20047;-89
2023/09/21 08:17:58;;;;;;;5.18;3.35;;;;;;;17.30;84.89;100729.63;10548611;28;20040;-85
2023/09/21 08:23:00;;;;;;;6.13;3.08;;;;;;;17.55;83.88;100736.34;10578180;28;20498;-85
2023/09/21 08:28:03;;;;;;;5.85;3.35;;;;;;;17.85;83.54;100726.22;10565167;28;20486;-88
2023/09/21 08:33:07;;;;;;;4.53;3.05;;;;;;;18.21;81.22;100748.88;10568508;28;20033;-90
2023/09/21 08:38:10;;;;;;;6.03;2.95;;;;;;;18.63;79.85;100746.38;10583907;28;20040;-90
2023/09/21 08:43:22;;;;;;;4.97;2.80;;;;;;;18.70;78.66;100749.44;10558055;28;20040;-92
2023/09/21 08:48:26;;;;;;;9.85;2.95;;;;;;;18.70;77.69;100752.22;10523905;28;20045;-88
2023/09/21 08:53:28;;;;;;;4.00;2.30;;;;;;;18.14;79.04;100761.66;10510981;28;20044;-85
2023/09/21 08:58:37;;;;;;;2.58;2.10;;;;;;;18.17;79.85;100761.00;10554948;28;20052;-84
2023/09/21 09:03:40;;;;;;;2.67;1.95;;;;;;;18.50;78.47;100761.25;10562575;27;20054;-85
2023/09/21 09:08:46;;;;;;;5.00;2.20;;;;;;;18.62;78.09;100767.75;10626989;27;20047;-85
2023/09/21 09:13:48;;;;;;;3.10;2.00;;;;;;;18.49;78.67;100779.06;10647444;27;20031;-84
2023/09/21 09:18:51;;;;;;;3.35;1.92;;;;;;;18.30;79.27;100783.03;10612601;27;20425;-85
2023/09/21 09:23:53;;;;;;;2.33;1.63;;;;;;;18.14;78.85;100784.69;10612875;27;20860;-84
2023/09/21 09:29:06;;;;;;;2.10;1.35;;;;;;;18.07;79.51;100789.94;10638160;27;20036;-89
2023/09/21 09:34:12;;;;;;;4.75;1.52;;;;;;;18.28;78.64;100795.63;10585740;27;20048;-85
2023/09/21 09:39:14;;;;;;;2.45;1.73;;;;;;;18.14;79.19;100793.03;10643868;27;20041;-85
2023/09/21 09:44:22;;;;;;;4.13;1.83;;;;;;;18.17;79.65;100794.31;10630812;27;20027;-87
2023/09/21 09:49:28;;;;;;;3.15;1.70;;;;;;;18.45;78.52;100800.34;10647446;27;20031;-85
2023/09/21 09:54:31;;;;;;;1.83;1.50;;;;;;;18.50;78.40;100808.50;10622107;27;20048;-88
2023/09/21 09:59:35;;;;;;;3.65;1.50;;;;;;;18.62;77.46;100798.31;10635631;27;20045;-87
2023/09/21 10:04:38;;;;;;;3.00;1.70;;;;;;;18.65;76.87;100811.59;10642011;27;20501;-87
2023/09/21 10:09:41;;;;;;;3.38;1.60;;;;;;;18.62;77.64;100814.19;10616697;27;20035;-83
2023/09/21 10:15:33;;;;;;;3.42;1.80;;;;;;;18.79;77.63;100805.84;10655703;27;20047;-90
2023/09/21 10:20:38;;;;;;;1.90;1.70;;;;;;;18.87;77.04;100813.31;10612511;27;20047;-85
2023/09/21 10:25:44;;;;;;;1.67;1.58;;;;;;;18.88;76.35;100833.59;10652480;27;20035;-87
2023/09/21 10:30:47;;;;;;;2.45;1.50;;;;;;;18.84;76.12;100830.66;10654462;27;20043;-87
2023/09/21 10:35:49;;;;;;;3.20;1.80;;;;;;;18.66;76.38;100835.47;10639542;27;20529;-92
2023/09/21 10:40:53;;;;;;;2.53;1.70;;;;;;;18.78;76.07;100834.78;10621563;27;20039;-88
2023/09/21 10:45:55;;;;;;;1.67;1.38;;;;;;;18.93;75.27;100831.47;10609990;27;20039;-91
2023/09/21 10:50:58;;;;;;;3.45;1.80;;;;;;;18.85;75.14;100840.63;10578911;28;20036;-89
2023/09/21 10:56:01;;;;;;;3.88;1.67;;;;;;;18.89;76.20;100844.38;10593402;28;20048;-90
2023/09/21 11:01:05;;;;;;;5.03;2.47;;;;;;;18.98;75.17;100847.16;10608560;27;20058;-90
2023/09/21 11:06:08;;;;;;;2.22;1.80;;;;;;;18.91;75.05;100857.94;10597886;27;20043;-90
2023/09/21 11:11:13;;;;;;;2.67;1.40;;;;;;;18.93;75.99;100850.94;10589360;27;20038;-91
2023/09/21 11:16:19;;;;;;;2.75;1.50;;;;;;;19.11;75.63;100859.22;10600847;27;20046;-91
2023/09/21 11:21:22;;;;;;;3.00;2.25;;;;;;;19.08;75.35;100857.88;10627795;27;20204;-90
2023/09/21 11:26:25;;;;;;;5.70;2.17;;;;;;;19.23;74.97;100865.69;10634621;27;20049;-91
2023/09/21 11:31:28;;;;;;;2.25;1.92;;;;;;;19.24;74.65;100866.50;10578205;28;20046;-89
2023/09/21 11:36:30;;;;;;;3.85;1.70;;;;;;;19.19;74.68;100866.69;10610654;27;20421;-85
2023/09/21 11:41:33;;;;;;;10.02;2.33;;;;;;;19.25;75.76;100871.72;10646890;27;20035;-90
2023/09/21 11:46:35;;;;;;;1.65;1.25;;;;;;;19.21;73.74;100878.31;10653868;27;20038;-85
2023/09/21 11:51:37;;;;;;;15.32;3.30;;;;;;;19.11;76.02;100887.84;10631051;27;20049;-88
2023/09/21 11:56:42;;;;;;;7.88;2.00;;;;;;;19.08;74.14;100873.75;10610412;27;20039;-85
2023/09/21 12:01:45;;;;;;;6.18;3.38;;;;;;;19.18;74.21;100884.53;10652076;27;20043;-83
2023/09/21 12:06:52;;;;;;;3.45;2.38;;;;;;;19.34;73.53;100876.47;10661298;27;20051;-89
2023/09/21 12:11:54;;;;;;;2.00;1.35;;;;;;;19.24;72.60;100880.41;10652345;28;20506;-84
2023/09/21 12:17:01;;;;;;;2.30;1.73;;;;;;;19.04;72.71;100883.94;10654139;28;20394;-85
2023/09/21 12:22:05;;;;;;;2.73;1.40;;;;;;;19.02;73.06;100895.38;10642996;28;20031;-86
2023/09/21 12:27:08;;;;;;;4.13;1.92;;;;;;;19.26;72.63;100880.88;10639864;27;20040;-89
2023/09/21 12:32:11;;;;;;;1.98;1.42;;;;;;;19.25;72.21;100890.38;10628767;28;20035;-89
2023/09/21 12:37:14;;;;;;;1.80;1.38;;;;;;;19.26;72.13;100880.88;10641084;27;20166;-85
2023/09/21 12:42:18;;;;;;;2.45;1.40;;;;;;;19.36;72.36;100874.97;10656914;27;20515;-84
2023/09/21 12:47:21;;;;;;;3.92;1.63;;;;;;;19.25;72.08;100868.13;10647885;28;20040;-87
2023/09/21 12:52:23;;;;;;;4.90;1.80;;;;;;;19.27;72.21;100866.69;10574939;28;20035;-87
2023/09/21 12:57:27;;;;;;;1.92;1.42;;;;;;;19.20;72.63;100873.88;10644294;27;20039;-88
2023/09/21 13:02:35;;;;;;;2.70;1.70;;;;;;;19.25;71.92;100874.50;10597055;27;20051;-88
2023/09/21 13:07:43;;;;;;;3.90;1.77;;;;;;;19.26;72.83;100866.97;10611087;27;20043;-86
2023/09/21 13:12:45;;;;;;;2.47;1.63;;;;;;;19.34;72.72;100868.09;10639893;27;20512;-88
2023/09/21 13:17:49;;;;;;;4.43;2.28;;;;;;;19.51;72.35;100863.28;10638096;27;20409;-86
2023/09/21 13:22:58;;;;;;;4.28;1.65;;;;;;;19.62;71.09;100860.97;10638968;27;20043;-93
2023/09/21 13:28:04;;;;;;;5.35;1.60;;;;;;;19.40;71.04;100867.56;10596741;27;20035;-91
2023/09/21 13:33:09;;;;;;;2.95;2.10;;;;;;;19.48;71.16;100865.91;10636040;27;20035;-91
2023/09/21 13:38:15;;;;;;;2.63;1.27;;;;;;;19.29;71.09;100866.34;10596812;27;20031;-91
2023/09/21 13:43:29;;;;;;;1.50;1.40;;;;;;;19.31;69.83;100866.00;10629538;27;20043;-90
2023/09/21 13:48:34;;;;;;;3.97;2.10;;;;;;;19.26;70.77;100864.19;10626181;27;20069;-91
2023/09/21 13:53:37;;;;;;;2.97;1.83;;;;;;;19.29;69.88;100863.56;10609311;27;20051;-89
2023/09/21 13:58:44;;;;;;;3.20;1.75;;;;;;;19.29;70.12;100871.91;10607299;27;20038;-90
2023/09/21 14:03:51;;;;;;;3.00;1.60;;;;;;;19.30;70.09;100875.50;10641814;27;20478;-90
2023/09/21 14:08:58;;;;;;;2.03;1.58;;;;;;;19.19;70.02;100880.59;10616474;27;20039;-84
2023/09/21 14:14:05;;;;;;;2.67;1.42;;;;;;;19.11;71.12;100884.25;10660252;27;20042;-90
2023/09/21 14:19:08;;;;;;;2.33;1.50;;;;;;;19.07;71.31;100891.59;10639155;27;20085;-88
2023/09/21 14:24:11;;;;;;;1.77;1.35;;;;;;;19.03;71.47;100898.97;10614267;27;21139;-89
2023/09/21 14:29:17;;;;;;;2.03;1.50;;;;;;;19.05;71.53;100891.13;10615225;27;20039;-85
2023/09/21 14:34:20;;;;;;;3.20;1.75;;;;;;;19.11;71.90;100900.94;10619913;27;20039;-86
2023/09/21 14:39:25;;;;;;;2.58;1.40;;;;;;;19.08;71.25;100896.84;10660424;27;20112;-91
2023/09/21 14:44:31;;;;;;;2.33;1.55;;;;;;;19.07;71.66;100906.31;10649467;27;20049;-90
2023/09/21 14:49:34;;;;;;;3.95;1.52;;;;;;;19.07;71.62;100908.28;10611238;27;20038;-92
2023/09/21 14:54:37;;;;;;;2.67;1.52;;;;;;;19.03;71.86;100910.09;10590354;28;20050;-90
2023/09/21 14:59:41;;;;;;;2.63;1.50;;;;;;;19.04;72.97;100908.97;10622317;27;20039;-90
2023/09/21 15:04:46;;;;;;;2.65;1.42;;;;;;;19.04;71.93;100909.78;10598581;28;20143;-90
2023/09/21 15:09:48;;;;;;;3.67;1.60;;;;;;;19.03;71.39;100912.88;10548047;28;20043;-90
2023/09/21 15:14:51;;;;;;;2.90;1.63;;;;;;;18.94;72.97;100919.31;10550382;28;20044;-89
2023/09/21 15:19:53;;;;;;;3.13;1.90;;;;;;;18.91;73.49;100928.28;10548841;28;20044;-89
2023/09/21 15:24:56;;;;;;;6.60;2.78;;;;;;;18.86;73.73;100933.22;10546416;28;20042;-89
2023/09/21 15:29:58;;;;;;;5.95;2.97;;;;;;;18.77;74.67;100936.03;10550903;28;20402;-88
2023/09/21 15:35:00;;;;;;;5.25;3.42;;;;;;;18.70;75.19;100941.25;10558855;28;20044;-89
2023/09/21 15:40:04;;;;;;;6.25;3.08;;;;;;;18.55;76.02;100945.31;10566780;28;20082;-91
2023/09/21 15:45:07;;;;;;;7.95;4.80;;;;;;;18.42;76.79;100939.94;10537096;28;20044;-90
2023/09/21 15:50:10;;;;;;;7.63;4.80;;;;;;;18.27;77.91;100949.56;10517647;28;20044;-90
2023/09/21 15:55:13;;;;;;;7.07;5.15;;;;;;;18.15;77.81;100944.63;10534442;28;20055;-90
2023/09/21 16:00:15;;;;;;;7.65;4.97;;;;;;;18.10;78.96;100955.09;10560506;27;20413;-89
2023/09/21 16:05:20;;;;;;;9.57;5.28;;;;;;;17.99;79.54;100957.34;10597265;27;20036;-91
2023/09/21 16:10:23;;;;;;;6.28;3.80;;;;;;;17.93;79.46;100961.41;10618686;28;20050;-89
2023/09/21 16:15:26;;;;;;;6.32;3.97;;;;;;;17.91;79.81;100961.75;10576287;28;20110;-90
2023/09/21 16:20:29;;;;;;;4.47;3.33;;;;;;;17.77;79.58;100969.38;10603506;27;20039;-88
2023/09/21 16:25:31;;;;;;;6.45;2.92;;;;;;;17.69;79.80;100973.75;10636032;28;20046;-89
2023/09/21 16:30:34;;;;;;;5.70;3.20;;;;;;;17.71;80.90;100973.44;10628943;28;20042;-87
2023/09/21 16:35:39;;;;;;;6.55;3.55;;;;;;;17.68;80.34;100974.88;10612964;28;20089;-88
2023/09/21 16:40:42;;;;;;;5.47;3.20;;;;;;;17.63;80.52;100975.00;10624269;27;20479;-90
2023/09/21 16:45:45;;;;;;;6.72;3.00;;;;;;;17.60;79.87;100981.19;10593591;27;20035;-86
2023/09/21 16:50:47;;;;;;;3.55;2.55;;;;;;;17.57;78.87;100975.47;10622623;27;20565;-89
2023/09/21 16:55:50;;;;;;;6.38;2.83;;;;;;;17.55;78.58;100980.53;10605882;27;20527;-85
2023/09/21 17:00:55;;;;;;;5.07;2.42;;;;;;;17.46;78.62;100991.56;10620268;27;20054;-85
2023/09/21 17:06:02;;;;;;;5.70;2.47;;;;;;;17.44;78.37;100993.84;10640634;27;20045;-94
2023/09/21 17:11:08;;;;;;;4.88;2.53;;;;;;;17.39;78.71;100991.22;10626363;27;20142;-92
2023/09/21 17:16:14;;;;;;;5.82;2.92;;;;;;;17.37;78.29;100991.53;10611251;27;20098;-92
2023/09/21 17:21:26;;;;;;;4.05;2.15;;;;;;;17.43;77.67;101001.34;10612593;27;20111;-94
2023/09/21 17:26:29;;;;;;;4.05;2.45;;;;;;;17.43;77.51;100997.75;10618770;27;20062;-91
2023/09/21 17:31:32;;;;;;;6.38;2.55;;;;;;;17.42;77.38;101007.22;10624645;27;20070;-93
2023/09/21 17:36:55;;;;;;;3.65;2.40;;;;;;;17.34;77.67;101011.56;10614728;27;20049;-87
2023/09/21 17:41:59;;;;;;;5.53;2.58;;;;;;;17.30;77.58;101009.75;10647259;27;20413;-89
2023/09/21 17:47:05;;;;;;;6.90;3.33;;;;;;;17.26;77.62;101014.31;10649375;27;20039;-89
2023/09/21 17:52:07;;;;;;;3.97;2.25;;;;;;;17.25;78.01;101027.34;10631890;27;20036;-93
2023/09/21 17:57:13;;;;;;;4.57;2.85;;;;;;;17.16;78.19;101023.69;10607771;27;20042;-86
2023/09/21 18:02:19;;;;;;;6.20;3.28;;;;;;;17.09;78.84;101032.47;10661389;27;20521;-85
2023/09/21 18:07:25;;;;;;;5.38;2.65;;;;;;;17.02;78.93;101032.09;10651691;27;20035;-90
2023/09/21 18:12:27;;;;;;;4.85;2.78;;;;;;;16.99;79.48;101031.88;10624296;27;20497;-91
2023/09/21 18:17:30;;;;;;;5.20;2.60;;;;;;;16.99;78.92;101035.47;10612107;27;20058;-88
2023/09/21 18:22:33;;;;;;;9.02;3.40;;;;;;;16.94;78.99;101038.38;10635283;27;20028;-87
2023/09/21 18:27:58;;;;;;;8.93;3.65;;;;;;;16.94;78.99;101046.69;10652597;27;20031;-83
2023/09/21 18:33:11;;;;;;;10.35;4.30;;;;;;;16.95;79.50;101050.28;10644022;27;20038;-86
2023/09/21 18:38:41;;;;;;;5.85;2.75;;;;;;;16.91;79.13;101050.09;10660780;27;20076;-86
2023/09/21 18:43:57;;;;;;;5.72;2.85;;;;;;;16.85;79.18;101052.19;10645127;27;20046;-91
2023/09/21 18:49:12;;;;;;;7.68;3.63;;;;;;;16.87;79.57;101051.88;10600226;27;20050;-94
2023/09/21 18:54:28;;;;;;;5.43;2.92;;;;;;;16.88;79.49;101053.50;10601832;27;20503;-94
2023/09/21 18:59:31;;;;;;;7.30;2.78;;;;;;;16.82;79.54;101052.78;10630484;27;20039;-93
2023/09/21 19:04:34;;;;;;;7.18;2.80;;;;;;;16.80;79.10;101057.00;10622448;27;20070;-93
2023/09/21 19:09:37;;;;;;;4.95;2.83;;;;;;;16.84;79.40;101061.63;10587424;27;20039;-94
2023/09/21 19:15:08;;;;;;;6.18;3.50;;;;;;;16.74;79.11;101059.09;10590905;27;20049;-93
2023/09/21 19:20:36;;;;;;;6.20;3.35;;;;;;;16.64;79.51;101064.00;10643401;27;20130;-94
2023/09/21 19:25:39;;;;;;;8.00;3.33;;;;;;;16.61;79.93;101072.94;10594842;27;20081;-92
2023/09/21 19:30:46;;;;;;;8.27;3.55;;;;;;;16.56;79.37;101077.47;10592791;27;20061;-89
2023/09/21 19:35:53;;;;;;;7.88;3.50;;;;;;;16.53;79.64;101082.81;10616063;27;20463;-86
2023/09/21 19:40:56;;;;;;;4.90;3.07;;;;;;;16.49;80.01;101096.47;10652303;27;20497;-87
2023/09/21 19:46:33;;;;;;;6.65;3.30;;;;;;;16.36;80.22;101093.72;10609305;27;20499;-95
2023/09/21 19:51:56;;;;;;;5.35;3.03;;;;;;;16.35;80.45;101092.06;10803139;22;20591;-89
2023/09/21 19:56:59;;;;;;;5.65;2.80;;;;;;;16.32;80.68;101092.69;10515525;28;20040;-86
2023/09/21 20:02:01;;;;;;;6.53;2.78;;;;;;;16.29;80.38;101096.88;10507072;28;20040;-84
2023/09/21 20:07:03;;;;;;;3.67;2.47;;;;;;;16.23;80.88;101095.34;10462803;28;20033;-84
2023/09/21 20:12:06;;;;;;;5.20;2.90;;;;;;;16.22;80.73;101102.00;10453601;28;20037;-85
2023/09/21 20:17:09;;;;;;;5.82;2.90;;;;;;;16.15;81.08;101104.38;10440024;28;20041;-84
2023/09/21 20:22:12;;;;;;;5.38;2.47;;;;;;;16.10;80.71;101104.47;10470727;28;20039;-86
2023/09/21 20:27:14;;;;;;;5.25;2.78;;;;;;;16.06;81.65;101108.97;10480994;28;20037;-85
2023/09/21 20:32:16;;;;;;;4.50;2.30;;;;;;;16.05;81.35;101105.41;10502028;28;20037;-84
2023/09/21 20:37:21;;;;;;;5.30;2.90;;;;;;;15.99;81.51;101106.63;10489569;28;20047;-84
2023/09/21 20:42:23;;;;;;;5.22;2.72;;;;;;;15.94;82.12;101110.28;10488235;28;20047;-86
2023/09/21 20:47:25;;;;;;;7.60;3.10;;;;;;;15.92;82.70;101100.66;10499450;28;20037;-85
2023/09/21 20:52:28;;;;;;;5.15;2.85;;;;;;;15.88;82.27;101106.00;10482017;28;20501;-85
2023/09/21 20:57:30;;;;;;;3.67;2.30;;;;;;;15.88;82.88;101106.00;10430217;28;20037;-84
2023/09/21 21:02:33;;;;;;;4.95;2.38;;;;;;;15.79;83.06;101105.03;10407662;28;20033;-85
2023/09/21 21:07:36;;;;;;;6.97;3.03;;;;;;;15.76;83.78;101094.59;10419520;28;20065;-86
2023/09/21 21:12:38;;;;;;;4.85;2.38;;;;;;;15.67;83.60;101105.53;10421736;28;20145;-87
2023/09/21 21:17:41;;;;;;;4.13;2.40;;;;;;;15.55;84.41;101105.16;10438033;28;20432;-87
2023/09/21 21:22:43;;;;;;;6.65;2.88;;;;;;;15.52;85.14;101104.97;10386924;28;20040;-88
2023/09/21 21:27:45;;;;;;;4.93;2.88;;;;;;;15.49;84.78;101102.81;10377697;28;20533;-88
2023/09/21 21:32:49;;;;;;;5.95;2.80;;;;;;;15.39;85.72;101101.84;10410687;28;20041;-87
2023/09/21 21:37:51;;;;;;;5.75;3.00;;;;;;;15.45;86.31;101104.53;10394993;28;20045;-87
2023/09/21 21:42:53;;;;;;;4.03;2.40;;;;;;;15.44;85.70;101109.22;10388114;28;20060;-88
2023/09/21 21:47:55;;;;;;;6.30;3.00;;;;;;;15.49;85.64;101111.09;10379159;28;20044;-88
2023/09/21 21:52:58;;;;;;;4.78;2.95;;;;;;;15.49;86.42;101113.88;10387536;28;20424;-89
2023/09/21 21:58:00;;;;;;;9.45;3.92;;;;;;;15.39;86.10;101104.59;10446337;28;20041;-88
2023/09/21 22:03:03;;;;;;;7.53;3.65;;;;;;;15.47;85.76;101113.34;10414284;28;20392;-88
2023/09/21 22:08:36;;;;;;;;;;;;;;;;;;;;;
2023/09/21 22:15:10;;;;;;;;;;;;;;;;;;;;;
2023/09/21 22:21:41;;;;;;;10.48;4.97;;;;;;;15.25;86.21;101113.97;10446031;28;20045;-87
2023/09/21 22:27:38;;;;;;;;;;;;;;;;;;;;;
2023/09/21 22:47:40;;;;;;;;;;;;;;;;;;;;;
2023/09/21 22:53:53;;;;;;;2.55;2.03;;;;;;;14.94;87.90;101116.41;10412362;28;20056;-89
2023/09/21 23:00:00;;;;;;;;;;;;;;;;;;;;;
2023/09/21 23:34:33;;;;;;;;;;;;;;;;;;;;;
2023/09/21 23:40:26;;;;;;;;;;;;;;;;;;;;;
